sensor_id;sensor_type;location;lat;lon;timestamp;pressure;altitude;pressure_sealevel;temperature;humidity
11415;BME280;5763;42.714;23.244;2022-11-20T00:00:11;93815.81;;;18.38;61.40
11415;BME280;5763;42.714;23.244;2022-11-20T00:02:39;93821.81;;;18.42;61.42
11415;BME280;5763;42.714;23.244;2022-11-20T00:05:08;93818.06;;;18.39;61.49
11415;BME280;5763;42.714;23.244;2022-11-20T00:07:34;93854.75;;;18.45;61.19
11415;BME280;5763;42.714;23.244;2022-11-20T00:10:01;93847.72;;;18.44;61.66
11415;BME280;5763;42.714;23.244;2022-11-20T00:12:28;93824.56;;;18.42;61.60
11415;BME280;5763;42.714;23.244;2022-11-20T00:14:55;93851.22;;;18.45;61.80
11415;BME280;5763;42.714;23.244;2022-11-20T00:17:22;93804.41;;;18.41;61.76
11415;BME280;5763;42.714;23.244;2022-11-20T00:19:50;93806.38;;;18.46;61.21
11415;BME280;5763;42.714;23.244;2022-11-20T00:22:17;93824.56;;;18.42;61.01
11415;BME280;5763;42.714;23.244;2022-11-20T00:24:44;93870.78;;;18.52;60.43
11415;BME280;5763;42.714;23.244;2022-11-20T00:27:11;93842.34;;;18.52;61.16
11415;BME280;5763;42.714;23.244;2022-11-20T00:29:38;93826.75;;;18.49;60.61
11415;BME280;5763;42.714;23.244;2022-11-20T00:32:05;93820.59;;;18.56;60.48
11415;BME280;5763;42.714;23.244;2022-11-20T00:34:33;93820.91;;;18.52;61.00
11415;BME280;5763;42.714;23.244;2022-11-20T00:37:01;93849.59;;;18.55;60.45
11415;BME280;5763;42.714;23.244;2022-11-20T00:39:28;93833.28;;;18.51;60.90
11415;BME280;5763;42.714;23.244;2022-11-20T00:41:54;93819.47;;;18.46;61.26
11415;BME280;5763;42.714;23.244;2022-11-20T00:44:21;93851.91;;;18.51;61.14
11415;BME280;5763;42.714;23.244;2022-11-20T00:46:48;93809.97;;;18.41;62.10
11415;BME280;5763;42.714;23.244;2022-11-20T00:49:15;93829.88;;;18.40;62.30
11415;BME280;5763;42.714;23.244;2022-11-20T00:51:42;93841.94;;;18.42;62.39
11415;BME280;5763;42.714;23.244;2022-11-20T00:54:10;93841.19;;;18.42;62.12
11415;BME280;5763;42.714;23.244;2022-11-20T00:56:36;93830.94;;;18.37;62.79
11415;BME280;5763;42.714;23.244;2022-11-20T00:59:03;93819.84;;;18.37;62.76
11415;BME280;5763;42.714;23.244;2022-11-20T01:01:30;93815.38;;;18.28;63.44
11415;BME280;5763;42.714;23.244;2022-11-20T01:03:58;93814.31;;;18.31;63.45
11415;BME280;5763;42.714;23.244;2022-11-20T01:06:26;93825.13;;;18.35;63.32
11415;BME280;5763;42.714;23.244;2022-11-20T01:08:55;93828.94;;;18.32;63.69
11415;BME280;5763;42.714;23.244;2022-11-20T01:11:25;93801.00;;;18.29;63.32
11415;BME280;5763;42.714;23.244;2022-11-20T01:13:52;93794.78;;;18.23;63.89
11415;BME280;5763;42.714;23.244;2022-11-20T01:16:21;93782.09;;;18.09;64.11
11415;BME280;5763;42.714;23.244;2022-11-20T01:18:50;93778.44;;;18.20;63.25
11415;BME280;5763;42.714;23.244;2022-11-20T01:21:19;93786.25;;;18.22;63.44
11415;BME280;5763;42.714;23.244;2022-11-20T01:23:47;93784.97;;;18.23;64.12
11415;BME280;5763;42.714;23.244;2022-11-20T01:26:16;93792.81;;;18.18;63.30
11415;BME280;5763;42.714;23.244;2022-11-20T01:28:45;93786.47;;;18.23;62.86
11415;BME280;5763;42.714;23.244;2022-11-20T01:31:14;93784.66;;;18.26;63.18
11415;BME280;5763;42.714;23.244;2022-11-20T01:33:42;93786.00;;;18.19;63.60
11415;BME280;5763;42.714;23.244;2022-11-20T01:36:10;93791.78;;;18.22;62.58
11415;BME280;5763;42.714;23.244;2022-11-20T01:38:37;93788.72;;;18.25;61.54
11415;BME280;5763;42.714;23.244;2022-11-20T01:41:05;93811.34;;;18.29;62.11
11415;BME280;5763;42.714;23.244;2022-11-20T01:43:33;93789.91;;;18.29;61.40
11415;BME280;5763;42.714;23.244;2022-11-20T01:46:03;93794.44;;;18.33;61.42
11415;BME280;5763;42.714;23.244;2022-11-20T01:48:34;93796.22;;;18.30;61.68
11415;BME280;5763;42.714;23.244;2022-11-20T01:51:04;93797.69;;;18.37;61.32
11415;BME280;5763;42.714;23.244;2022-11-20T01:53:36;93813.03;;;18.38;61.48
11415;BME280;5763;42.714;23.244;2022-11-20T01:56:05;93805.28;;;18.31;61.63
11415;BME280;5763;42.714;23.244;2022-11-20T01:58:40;93807.06;;;18.28;61.52
11415;BME280;5763;42.714;23.244;2022-11-20T02:01:10;93792.44;;;18.33;61.32
11415;BME280;5763;42.714;23.244;2022-11-20T02:03:37;93802.00;;;18.32;61.29
11415;BME280;5763;42.714;23.244;2022-11-20T02:06:10;93802.75;;;18.33;61.31
11415;BME280;5763;42.714;23.244;2022-11-20T02:08:38;93799.50;;;18.28;60.81
11415;BME280;5763;42.714;23.244;2022-11-20T02:11:05;93786.41;;;18.29;60.65
11415;BME280;5763;42.714;23.244;2022-11-20T02:13:33;93785.63;;;18.34;60.88
11415;BME280;5763;42.714;23.244;2022-11-20T02:16:20;93784.88;;;18.34;60.74
11415;BME280;5763;42.714;23.244;2022-11-20T02:18:48;93785.91;;;18.31;60.92
11415;BME280;5763;42.714;23.244;2022-11-20T02:21:24;93787.22;;;18.24;60.86
11415;BME280;5763;42.714;23.244;2022-11-20T02:24:00;93802.56;;;18.25;60.94
11415;BME280;5763;42.714;23.244;2022-11-20T02:26:28;93800.59;;;18.20;61.33
11415;BME280;5763;42.714;23.244;2022-11-20T02:28:57;93774.38;;;18.02;60.77
11415;BME280;5763;42.714;23.244;2022-11-20T02:31:25;93795.22;;;18.27;60.90
11415;BME280;5763;42.714;23.244;2022-11-20T02:33:55;93785.19;;;18.24;61.35
11415;BME280;5763;42.714;23.244;2022-11-20T02:36:22;93787.44;;;18.26;61.04
11415;BME280;5763;42.714;23.244;2022-11-20T02:38:50;93819.94;;;18.26;61.74
11415;BME280;5763;42.714;23.244;2022-11-20T02:41:18;93800.25;;;18.29;61.42
11415;BME280;5763;42.714;23.244;2022-11-20T02:43:45;93820.50;;;18.18;61.94
11415;BME280;5763;42.714;23.244;2022-11-20T02:46:12;93821.44;;;18.27;61.88
11415;BME280;5763;42.714;23.244;2022-11-20T02:48:38;93812.38;;;18.26;61.83
11415;BME280;5763;42.714;23.244;2022-11-20T02:51:05;93819.94;;;18.26;62.18
11415;BME280;5763;42.714;23.244;2022-11-20T02:53:32;93828.81;;;18.18;62.60
11415;BME280;5763;42.714;23.244;2022-11-20T02:55:59;93824.03;;;18.19;62.94
11415;BME280;5763;42.714;23.244;2022-11-20T02:58:27;93818.25;;;18.17;63.43
11415;BME280;5763;42.714;23.244;2022-11-20T03:00:54;93830.09;;;18.17;63.53
11415;BME280;5763;42.714;23.244;2022-11-20T03:03:21;93811.50;;;18.13;63.65
11415;BME280;5763;42.714;23.244;2022-11-20T03:05:48;93822.59;;;18.13;63.36
11415;BME280;5763;42.714;23.244;2022-11-20T03:08:14;93824.59;;;18.12;63.64
11415;BME280;5763;42.714;23.244;2022-11-20T03:10:41;93834.69;;;18.09;64.05
11415;BME280;5763;42.714;23.244;2022-11-20T03:13:08;93829.28;;;17.98;64.39
11415;BME280;5763;42.714;23.244;2022-11-20T03:15:37;93835.84;;;17.96;64.87
11415;BME280;5763;42.714;23.244;2022-11-20T03:18:04;93821.94;;;18.01;64.55
11415;BME280;5763;42.714;23.244;2022-11-20T03:20:32;93842.38;;;17.98;65.15
11415;BME280;5763;42.714;23.244;2022-11-20T03:22:59;93817.00;;;17.94;65.61
11415;BME280;5763;42.714;23.244;2022-11-20T03:25:26;93828.06;;;17.94;65.77
11415;BME280;5763;42.714;23.244;2022-11-20T03:27:53;93854.75;;;17.92;65.84
11415;BME280;5763;42.714;23.244;2022-11-20T03:30:20;93837.69;;;17.88;65.97
11415;BME280;5763;42.714;23.244;2022-11-20T03:32:49;93844.59;;;17.76;65.87
11415;BME280;5763;42.714;23.244;2022-11-20T03:35:19;93857.13;;;17.82;65.81
11415;BME280;5763;42.714;23.244;2022-11-20T03:37:45;93847.47;;;17.88;65.40
11415;BME280;5763;42.714;23.244;2022-11-20T03:40:12;93854.47;;;17.95;64.57
11415;BME280;5763;42.714;23.244;2022-11-20T03:42:39;93865.84;;;17.92;64.72
11415;BME280;5763;42.714;23.244;2022-11-20T03:45:12;93868.63;;;17.86;65.18
11415;BME280;5763;42.714;23.244;2022-11-20T03:47:39;93865.63;;;17.90;64.56
11415;BME280;5763;42.714;23.244;2022-11-20T03:50:08;93855.25;;;17.96;64.27
11415;BME280;5763;42.714;23.244;2022-11-20T03:52:35;93875.84;;;17.94;64.74
11415;BME280;5763;42.714;23.244;2022-11-20T03:55:03;93872.59;;;17.96;64.48
11415;BME280;5763;42.714;23.244;2022-11-20T03:57:30;93871.88;;;17.90;64.78
11415;BME280;5763;42.714;23.244;2022-11-20T03:59:57;93889.25;;;17.91;64.64
11415;BME280;5763;42.714;23.244;2022-11-20T04:02:23;93880.88;;;17.96;64.50
11415;BME280;5763;42.714;23.244;2022-11-20T04:04:50;93898.97;;;18.02;64.22
11415;BME280;5763;42.714;23.244;2022-11-20T04:07:18;93895.00;;;17.92;64.72
11415;BME280;5763;42.714;23.244;2022-11-20T04:09:45;93886.41;;;17.96;64.39
11415;BME280;5763;42.714;23.244;2022-11-20T04:12:13;93880.59;;;17.99;64.32
11415;BME280;5763;42.714;23.244;2022-11-20T04:14:39;93868.53;;;17.97;64.14
11415;BME280;5763;42.714;23.244;2022-11-20T04:17:06;93853.50;;;17.92;64.46
11415;BME280;5763;42.714;23.244;2022-11-20T04:19:33;93860.22;;;17.97;64.45
11415;BME280;5763;42.714;23.244;2022-11-20T04:22:00;93873.38;;;17.91;64.58
11415;BME280;5763;42.714;23.244;2022-11-20T04:24:28;93855.78;;;17.88;64.31
11415;BME280;5763;42.714;23.244;2022-11-20T04:26:54;93870.69;;;17.86;64.66
11415;BME280;5763;42.714;23.244;2022-11-20T04:29:21;93888.06;;;17.81;64.78
11415;BME280;5763;42.714;23.244;2022-11-20T04:31:48;93865.47;;;17.77;64.64
11415;BME280;5763;42.714;23.244;2022-11-20T04:34:15;93875.78;;;17.76;64.44
11415;BME280;5763;42.714;23.244;2022-11-20T04:36:41;93881.78;;;17.80;64.47
11415;BME280;5763;42.714;23.244;2022-11-20T04:39:12;93827.00;;;17.44;64.84
11415;BME280;5763;42.714;23.244;2022-11-20T04:41:41;93875.34;;;17.67;65.38
11415;BME280;5763;42.714;23.244;2022-11-20T04:44:08;93855.75;;;17.65;66.01
11415;BME280;5763;42.714;23.244;2022-11-20T04:46:36;93846.19;;;17.66;65.81
11415;BME280;5763;42.714;23.244;2022-11-20T04:49:04;93862.09;;;17.60;66.16
11415;BME280;5763;42.714;23.244;2022-11-20T04:51:30;93849.00;;;17.60;66.21
11415;BME280;5763;42.714;23.244;2022-11-20T04:53:57;93842.72;;;17.60;66.58
11415;BME280;5763;42.714;23.244;2022-11-20T04:56:24;93845.22;;;17.58;66.49
11415;BME280;5763;42.714;23.244;2022-11-20T04:58:52;93828.88;;;17.60;66.24
11415;BME280;5763;42.714;23.244;2022-11-20T05:01:20;93826.91;;;17.55;66.77
11415;BME280;5763;42.714;23.244;2022-11-20T05:03:47;93831.75;;;17.49;67.14
11415;BME280;5763;42.714;23.244;2022-11-20T05:06:18;93819.41;;;17.50;67.42
11415;BME280;5763;42.714;23.244;2022-11-20T05:08:45;93820.16;;;17.50;67.76
11415;BME280;5763;42.714;23.244;2022-11-20T05:11:14;93824.88;;;17.55;67.41
11415;BME280;5763;42.714;23.244;2022-11-20T05:13:42;93831.28;;;17.45;68.09
11415;BME280;5763;42.714;23.244;2022-11-20T05:16:11;93821.69;;;17.46;68.00
11415;BME280;5763;42.714;23.244;2022-11-20T05:18:39;93833.97;;;17.50;68.11
11415;BME280;5763;42.714;23.244;2022-11-20T05:21:06;93833.00;;;17.48;68.52
11415;BME280;5763;42.714;23.244;2022-11-20T05:23:34;93846.38;;;17.44;69.09
11415;BME280;5763;42.714;23.244;2022-11-20T05:26:02;93838.06;;;17.38;69.66
11415;BME280;5763;42.714;23.244;2022-11-20T05:28:30;93830.28;;;17.36;69.65
11415;BME280;5763;42.714;23.244;2022-11-20T05:31:04;93838.81;;;17.44;69.40
11415;BME280;5763;42.714;23.244;2022-11-20T05:33:34;93842.63;;;17.41;69.40
11415;BME280;5763;42.714;23.244;2022-11-20T05:36:01;93863.75;;;17.39;69.79
11415;BME280;5763;42.714;23.244;2022-11-20T05:38:28;93848.38;;;17.37;69.65
11415;BME280;5763;42.714;23.244;2022-11-20T05:40:55;93838.88;;;17.39;69.56
11415;BME280;5763;42.714;23.244;2022-11-20T05:43:31;93838.06;;;17.38;69.47
11415;BME280;5763;42.714;23.244;2022-11-20T05:45:58;93847.16;;;17.39;69.23
11415;BME280;5763;42.714;23.244;2022-11-20T05:48:25;93852.13;;;17.46;69.13
11415;BME280;5763;42.714;23.244;2022-11-20T05:50:53;93841.53;;;17.50;68.18
11415;BME280;5763;42.714;23.244;2022-11-20T05:53:20;93850.13;;;17.46;68.12
11415;BME280;5763;42.714;23.244;2022-11-20T05:55:46;93874.25;;;17.46;67.97
11415;BME280;5763;42.714;23.244;2022-11-20T05:58:22;93854.66;;;17.38;68.43
11415;BME280;5763;42.714;23.244;2022-11-20T06:00:48;93859.94;;;17.42;68.76
11415;BME280;5763;42.714;23.244;2022-11-20T06:03:15;93855.69;;;17.41;68.70
11415;BME280;5763;42.714;23.244;2022-11-20T06:05:42;93868.72;;;17.46;68.48
11415;BME280;5763;42.714;23.244;2022-11-20T06:08:10;93864.38;;;17.56;67.95
11415;BME280;5763;42.714;23.244;2022-11-20T06:10:36;93861.91;;;17.52;67.52
11415;BME280;5763;42.714;23.244;2022-11-20T06:13:03;93874.97;;;17.52;67.78
11415;BME280;5763;42.714;23.244;2022-11-20T06:15:30;93876.19;;;17.56;67.57
11415;BME280;5763;42.714;23.244;2022-11-20T06:17:57;93893.03;;;17.58;67.24
11415;BME280;5763;42.714;23.244;2022-11-20T06:20:24;93861.63;;;17.50;67.45
11415;BME280;5763;42.714;23.244;2022-11-20T06:22:50;93871.31;;;17.67;67.34
11415;BME280;5763;42.714;23.244;2022-11-20T06:25:19;93885.13;;;17.73;67.03
11415;BME280;5763;42.714;23.244;2022-11-20T06:27:46;93873.53;;;17.75;66.93
11415;BME280;5763;42.714;23.244;2022-11-20T06:30:13;93887.31;;;17.80;66.58
11415;BME280;5763;42.714;23.244;2022-11-20T06:32:40;93886.81;;;17.82;66.58
11415;BME280;5763;42.714;23.244;2022-11-20T06:35:07;93865.69;;;17.78;66.76
11415;BME280;5763;42.714;23.244;2022-11-20T06:37:34;93872.16;;;17.87;66.60
11415;BME280;5763;42.714;23.244;2022-11-20T06:40:01;93890.25;;;17.93;65.85
11415;BME280;5763;42.714;23.244;2022-11-20T06:42:29;93893.19;;;18.01;65.57
11415;BME280;5763;42.714;23.244;2022-11-20T06:44:57;93880.88;;;17.96;65.05
11415;BME280;5763;42.714;23.244;2022-11-20T06:47:24;93898.63;;;18.12;65.36
11415;BME280;5763;42.714;23.244;2022-11-20T06:49:50;93902.78;;;18.23;64.75
11415;BME280;5763;42.714;23.244;2022-11-20T06:52:18;93887.16;;;18.26;64.18
11415;BME280;5763;42.714;23.244;2022-11-20T06:54:44;93889.31;;;18.39;63.33
11415;BME280;5763;42.714;23.244;2022-11-20T06:57:11;93877.72;;;18.40;63.06
11415;BME280;5763;42.714;23.244;2022-11-20T06:59:40;93884.41;;;18.50;62.83
11415;BME280;5763;42.714;23.244;2022-11-20T07:02:09;93889.84;;;18.61;62.41
11415;BME280;5763;42.714;23.244;2022-11-20T07:04:36;93912.00;;;18.61;62.97
11415;BME280;5763;42.714;23.244;2022-11-20T07:07:03;93913.50;;;18.62;63.00
11415;BME280;5763;42.714;23.244;2022-11-20T07:09:29;93916.53;;;18.64;62.85
11415;BME280;5763;42.714;23.244;2022-11-20T07:11:56;93919.22;;;18.70;63.69
11415;BME280;5763;42.714;23.244;2022-11-20T07:14:23;93922.50;;;18.68;63.42
11415;BME280;5763;42.714;23.244;2022-11-20T07:16:51;93920.84;;;18.60;63.99
11415;BME280;5763;42.714;23.244;2022-11-20T07:19:18;93919.63;;;18.55;64.54
11415;BME280;5763;42.714;23.244;2022-11-20T07:21:45;93919.31;;;18.35;65.22
11415;BME280;5763;42.714;23.244;2022-11-20T07:24:12;93905.34;;;18.22;65.66
11415;BME280;5763;42.714;23.244;2022-11-20T07:26:39;93914.84;;;18.26;66.02
11415;BME280;5763;42.714;23.244;2022-11-20T07:29:05;93910.91;;;18.16;66.72
11415;BME280;5763;42.714;23.244;2022-11-20T07:31:32;93915.06;;;18.04;67.17
11415;BME280;5763;42.714;23.244;2022-11-20T07:34:01;93916.38;;;17.98;67.69
11415;BME280;5763;42.714;23.244;2022-11-20T07:36:27;93925.53;;;17.87;68.27
11415;BME280;5763;42.714;23.244;2022-11-20T07:38:54;93935.53;;;17.96;68.27
11415;BME280;5763;42.714;23.244;2022-11-20T07:41:21;93937.22;;;18.04;67.95
11415;BME280;5763;42.714;23.244;2022-11-20T07:43:48;93929.22;;;17.95;67.69
11415;BME280;5763;42.714;23.244;2022-11-20T07:46:14;93925.66;;;18.00;67.54
11415;BME280;5763;42.714;23.244;2022-11-20T07:48:41;93927.16;;;18.01;67.11
11415;BME280;5763;42.714;23.244;2022-11-20T07:51:09;93918.34;;;18.02;67.28
11415;BME280;5763;42.714;23.244;2022-11-20T07:53:36;93920.78;;;18.12;67.08
11415;BME280;5763;42.714;23.244;2022-11-20T07:56:03;93927.78;;;18.18;66.10
11415;BME280;5763;42.714;23.244;2022-11-20T07:58:30;93927.25;;;18.19;65.65
11415;BME280;5763;42.714;23.244;2022-11-20T08:01:01;93934.50;;;18.28;65.51
11415;BME280;5763;42.714;23.244;2022-11-20T08:03:28;93936.53;;;18.22;64.87
11415;BME280;5763;42.714;23.244;2022-11-20T08:05:58;93945.53;;;18.34;64.43
11415;BME280;5763;42.714;23.244;2022-11-20T08:08:26;93938.59;;;18.46;64.03
11415;BME280;5763;42.714;23.244;2022-11-20T08:10:53;93944.75;;;18.63;63.23
11415;BME280;5763;42.714;23.244;2022-11-20T08:13:40;93946.25;;;18.64;63.14
11415;BME280;5763;42.714;23.244;2022-11-20T08:16:24;93946.72;;;18.68;63.60
11415;BME280;5763;42.714;23.244;2022-11-20T08:18:50;93948.25;;;18.63;64.10
11415;BME280;5763;42.714;23.244;2022-11-20T08:21:17;93931.88;;;18.65;63.92
11415;BME280;5763;42.714;23.244;2022-11-20T08:23:46;93947.59;;;19.00;62.02
11415;BME280;5763;42.714;23.244;2022-11-20T08:26:12;93954.50;;;19.12;61.51
11415;BME280;5763;42.714;23.244;2022-11-20T08:28:39;93960.06;;;19.12;62.76
11415;BME280;5763;42.714;23.244;2022-11-20T08:31:06;93962.63;;;19.10;64.08
11415;BME280;5763;42.714;23.244;2022-11-20T08:33:33;93957.25;;;18.93;66.13
11415;BME280;5763;42.714;23.244;2022-11-20T08:36:00;93953.41;;;18.78;68.05
11415;BME280;5763;42.714;23.244;2022-11-20T08:38:27;93957.63;;;18.60;70.01
11415;BME280;5763;42.714;23.244;2022-11-20T08:40:57;93951.44;;;18.49;71.36
11415;BME280;5763;42.714;23.244;2022-11-20T08:43:42;93963.09;;;18.42;72.64
11415;BME280;5763;42.714;23.244;2022-11-20T08:46:08;93966.81;;;18.14;74.20
11415;BME280;5763;42.714;23.244;2022-11-20T08:48:35;93971.03;;;17.92;76.19
11415;BME280;5763;42.714;23.244;2022-11-20T08:51:02;93968.88;;;17.73;78.04
11415;BME280;5763;42.714;23.244;2022-11-20T08:53:29;93966.75;;;17.56;79.82
11415;BME280;5763;42.714;23.244;2022-11-20T08:55:57;93940.19;;;17.36;82.00
11415;BME280;5763;42.714;23.244;2022-11-20T08:58:24;93950.00;;;17.31;81.10
11415;BME280;5763;42.714;23.244;2022-11-20T09:00:51;93938.50;;;17.16;82.22
11415;BME280;5763;42.714;23.244;2022-11-20T09:03:18;93952.09;;;17.09;82.74
11415;BME280;5763;42.714;23.244;2022-11-20T09:05:45;93948.38;;;17.01;84.05
11415;BME280;5763;42.714;23.244;2022-11-20T09:08:12;93965.03;;;16.90;86.17
11415;BME280;5763;42.714;23.244;2022-11-20T09:10:38;93969.31;;;16.74;86.31
11415;BME280;5763;42.714;23.244;2022-11-20T09:13:07;93964.31;;;16.73;87.38
11415;BME280;5763;42.714;23.244;2022-11-20T09:15:34;93986.91;;;16.83;87.55
11415;BME280;5763;42.714;23.244;2022-11-20T09:18:02;93985.41;;;16.70;87.71
11415;BME280;5763;42.714;23.244;2022-11-20T09:20:30;93986.41;;;16.73;89.44
11415;BME280;5763;42.714;23.244;2022-11-20T09:22:57;93975.66;;;16.64;88.79
11415;BME280;5763;42.714;23.244;2022-11-20T09:25:24;93961.31;;;16.71;89.15
11415;BME280;5763;42.714;23.244;2022-11-20T09:27:55;93978.88;;;16.73;88.67
11415;BME280;5763;42.714;23.244;2022-11-20T09:30:24;93966.34;;;16.67;88.53
11415;BME280;5763;42.714;23.244;2022-11-20T09:32:50;93959.53;;;16.68;89.13
11415;BME280;5763;42.714;23.244;2022-11-20T09:35:18;93952.25;;;16.70;86.74
11415;BME280;5763;42.714;23.244;2022-11-20T09:37:45;93935.19;;;16.66;87.44
11415;BME280;5763;42.714;23.244;2022-11-20T09:40:20;93924.63;;;16.76;87.75
11415;BME280;5763;42.714;23.244;2022-11-20T09:42:52;93922.31;;;16.91;84.98
11415;BME280;5763;42.714;23.244;2022-11-20T09:45:35;93924.50;;;17.03;85.10
11415;BME280;5763;42.714;23.244;2022-11-20T09:48:18;93926.34;;;17.36;82.91
11415;BME280;5763;42.714;23.244;2022-11-20T09:50:51;93918.22;;;17.55;82.19
11415;BME280;5763;42.714;23.244;2022-11-20T09:53:27;93911.16;;;17.53;79.36
11415;BME280;5763;42.714;23.244;2022-11-20T09:55:56;93907.84;;;17.61;80.91
11415;BME280;5763;42.714;23.244;2022-11-20T09:58:28;93913.69;;;17.87;79.16
11415;BME280;5763;42.714;23.244;2022-11-20T10:01:05;93903.59;;;18.18;77.74
11415;BME280;5763;42.714;23.244;2022-11-20T10:03:41;93910.88;;;18.94;75.59
11415;BME280;5763;42.714;23.244;2022-11-20T10:06:13;93906.53;;;18.98;73.36
11415;BME280;5763;42.714;23.244;2022-11-20T10:08:45;93906.72;;;19.43;72.20
11415;BME280;5763;42.714;23.244;2022-11-20T10:11:21;93907.66;;;19.82;70.52
11415;BME280;5763;42.714;23.244;2022-11-20T10:13:59;93909.38;;;19.85;68.73
11415;BME280;5763;42.714;23.244;2022-11-20T10:16:38;93903.84;;;19.67;68.86
11415;BME280;5763;42.714;23.244;2022-11-20T10:19:15;93910.31;;;19.38;70.47
11415;BME280;5763;42.714;23.244;2022-11-20T10:21:55;93923.88;;;19.23;71.39
11415;BME280;5763;42.714;23.244;2022-11-20T10:24:47;93911.81;;;19.20;71.88
11415;BME280;5763;42.714;23.244;2022-11-20T10:27:29;93922.88;;;19.02;70.19
11415;BME280;5763;42.714;23.244;2022-11-20T10:30:08;93940.41;;;18.67;71.31
11415;BME280;5763;42.714;23.244;2022-11-20T10:32:38;93944.06;;;18.57;71.72
11415;BME280;5763;42.714;23.244;2022-11-20T10:35:14;93940.53;;;18.27;76.14
11415;BME280;5763;42.714;23.244;2022-11-20T10:37:45;93949.03;;;18.04;79.83
11415;BME280;5763;42.714;23.244;2022-11-20T10:40:21;93929.09;;;17.82;83.36
11415;BME280;5763;42.714;23.244;2022-11-20T10:42:51;93918.66;;;17.58;84.31
11415;BME280;5763;42.714;23.244;2022-11-20T10:45:38;93910.22;;;17.46;85.69
11415;BME280;5763;42.714;23.244;2022-11-20T10:48:15;93905.75;;;17.31;86.34
11415;BME280;5763;42.714;23.244;2022-11-20T10:51:04;93921.19;;;17.16;86.54
11415;BME280;5763;42.714;23.244;2022-11-20T10:53:50;93950.22;;;16.82;77.69
11415;BME280;5763;42.714;23.244;2022-11-20T10:56:24;93966.38;;;16.28;77.64
11415;BME280;5763;42.714;23.244;2022-11-20T11:01:49;93959.38;;;15.67;81.91
11415;BME280;5763;42.714;23.244;2022-11-20T11:04:28;93955.81;;;15.33;86.11
11415;BME280;5763;42.714;23.244;2022-11-20T11:07:01;93954.44;;;15.12;88.67
11415;BME280;5763;42.714;23.244;2022-11-20T11:09:34;93938.88;;;14.98;90.73
11415;BME280;5763;42.714;23.244;2022-11-20T11:12:07;93915.53;;;14.77;87.05
11415;BME280;5763;42.714;23.244;2022-11-20T11:14:42;93906.91;;;14.53;84.71
11415;BME280;5763;42.714;23.244;2022-11-20T11:17:20;93905.84;;;14.40;85.97
11415;BME280;5763;42.714;23.244;2022-11-20T11:20:05;93902.19;;;14.17;88.29
11415;BME280;5763;42.714;23.244;2022-11-20T11:22:34;93892.22;;;14.25;89.08
11415;BME280;5763;42.714;23.244;2022-11-20T11:25:19;93899.47;;;14.23;87.76
11415;BME280;5763;42.714;23.244;2022-11-20T11:27:46;93888.50;;;14.28;87.68
11415;BME280;5763;42.714;23.244;2022-11-20T11:30:16;93878.47;;;14.20;89.29
11415;BME280;5763;42.714;23.244;2022-11-20T11:32:43;93868.47;;;14.28;89.59
11415;BME280;5763;42.714;23.244;2022-11-20T11:35:23;93864.72;;;14.25;89.32
11415;BME280;5763;42.714;23.244;2022-11-20T11:37:51;93874.72;;;14.23;89.56
11415;BME280;5763;42.714;23.244;2022-11-20T11:40:21;93896.19;;;14.19;89.02
11415;BME280;5763;42.714;23.244;2022-11-20T11:42:53;93896.50;;;14.26;89.30
11415;BME280;5763;42.714;23.244;2022-11-20T11:45:21;93881.31;;;14.36;85.45
11415;BME280;5763;42.714;23.244;2022-11-20T11:47:49;93899.56;;;14.39;83.45
11415;BME280;5763;42.714;23.244;2022-11-20T11:50:21;93887.34;;;14.51;81.70
11415;BME280;5763;42.714;23.244;2022-11-20T11:52:54;93905.16;;;14.61;83.29
11415;BME280;5763;42.714;23.244;2022-11-20T11:55:29;93915.22;;;14.64;82.79
11415;BME280;5763;42.714;23.244;2022-11-20T11:58:06;93919.75;;;14.73;82.61
11415;BME280;5763;42.714;23.244;2022-11-20T12:00:35;93912.97;;;14.74;81.99
11415;BME280;5763;42.714;23.244;2022-11-20T12:03:09;93918.78;;;14.76;81.39
11415;BME280;5763;42.714;23.244;2022-11-20T12:05:43;93933.06;;;14.85;80.94
11415;BME280;5763;42.714;23.244;2022-11-20T12:08:15;93927.56;;;14.85;79.97
11415;BME280;5763;42.714;23.244;2022-11-20T12:10:47;93938.56;;;14.85;79.57
11415;BME280;5763;42.714;23.244;2022-11-20T12:16:03;93936.34;;;14.95;80.04
11415;BME280;5763;42.714;23.244;2022-11-20T12:18:30;93929.59;;;14.96;79.82
11415;BME280;5763;42.714;23.244;2022-11-20T12:21:12;93920.09;;;14.97;80.28
11415;BME280;5763;42.714;23.244;2022-11-20T12:23:53;93920.34;;;14.93;79.29
11415;BME280;5763;42.714;23.244;2022-11-20T12:26:34;93904.03;;;14.95;79.88
11415;BME280;5763;42.714;23.244;2022-11-20T12:29:09;93919.81;;;14.95;77.69
11415;BME280;5763;42.714;23.244;2022-11-20T12:31:59;93907.56;;;15.01;77.32
11415;BME280;5763;42.714;23.244;2022-11-20T12:34:42;93895.56;;;15.04;76.93
11415;BME280;5763;42.714;23.244;2022-11-20T12:37:19;93892.53;;;15.02;75.83
11415;BME280;5763;42.714;23.244;2022-11-20T12:39:49;93881.78;;;15.10;77.59
11415;BME280;5763;42.714;23.244;2022-11-20T12:42:38;93850.94;;;14.89;77.50
11415;BME280;5763;42.714;23.244;2022-11-20T12:48:42;93898.69;;;15.50;76.17
11415;BME280;5763;42.714;23.244;2022-11-20T12:51:34;93882.38;;;15.58;77.36
11415;BME280;5763;42.714;23.244;2022-11-20T12:54:24;93884.38;;;15.52;80.23
11415;BME280;5763;42.714;23.244;2022-11-20T12:56:59;93867.56;;;15.50;81.73
11415;BME280;5763;42.714;23.244;2022-11-20T12:59:39;93874.59;;;15.45;81.99
11415;BME280;5763;42.714;23.244;2022-11-20T13:02:23;93871.31;;;15.30;82.09
11415;BME280;5763;42.714;23.244;2022-11-20T13:05:05;93866.56;;;15.31;82.12
11415;BME280;5763;42.714;23.244;2022-11-20T13:07:38;93868.53;;;15.30;82.83
11415;BME280;5763;42.714;23.244;2022-11-20T13:10:20;93864.84;;;15.33;82.73
11415;BME280;5763;42.714;23.244;2022-11-20T13:12:53;93867.78;;;15.30;83.11
11415;BME280;5763;42.714;23.244;2022-11-20T13:15:39;93883.63;;;15.46;82.70
11415;BME280;5763;42.714;23.244;2022-11-20T13:18:12;93892.88;;;15.48;83.10
11415;BME280;5763;42.714;23.244;2022-11-20T13:20:45;93898.66;;;15.45;83.30
11415;BME280;5763;42.714;23.244;2022-11-20T13:23:24;93903.69;;;15.46;82.39